Time;durP1;ratioP1;P1;durP2;ratioP2;P2;SDS_P1;SDS_P2;PMS_P1;PMS_P2;Temp;Humidity;BMP_temperature;BMP_pressure;BME280_temperature;BME280_humidity;BME280_pressure;Samples;Min_cycle;Max_cycle;Signal;HPM_P1;HPM_P2
2021/03/02 00:00:50;;;;;;;22.87;11.57;;;;;;;7.11;70.77;102324.38;4419586;32;20057;-76
2021/03/02 00:03:16;;;;;;;23.20;12.02;;;;;;;7.03;70.57;102317.06;4421098;32;20453;-77
2021/03/02 00:05:45;;;;;;;25.58;10.95;;;;;;;7.07;70.85;102326.31;4420560;32;20033;-75
2021/03/02 00:08:11;;;;;;;22.92;9.85;;;;;;;7.21;70.19;102320.94;4420577;32;20079;-76
2021/03/02 00:10:39;;;;;;;19.95;9.93;;;;;;;7.22;69.68;102325.34;4419049;32;20038;-76
2021/03/02 00:13:05;;;;;;;19.95;9.38;;;;;;;7.12;68.63;102321.19;4420537;32;20022;-75
2021/03/02 00:15:30;;;;;;;19.35;9.40;;;;;;;7.11;69.28;102318.78;4420895;32;20064;-76
2021/03/02 00:17:58;;;;;;;19.48;9.02;;;;;;;7.16;69.54;102316.47;4420404;32;20098;-78
2021/03/02 00:20:25;;;;;;;21.33;9.43;;;;;;;7.06;69.74;102317.09;4418196;32;20022;-78
2021/03/02 00:23:08;;;;;;;21.50;9.40;;;;;;;7.15;70.58;102317.66;4420883;32;20042;-78
2021/03/02 00:25:36;;;;;;;20.62;9.40;;;;;;;7.17;71.10;102317.28;4420726;32;20049;-76
2021/03/02 00:28:06;;;;;;;21.45;10.45;;;;;;;7.24;71.15;102312.59;4420741;32;20030;-77
2021/03/02 00:30:33;;;;;;;23.67;9.82;;;;;;;7.20;70.63;102316.50;4420602;32;20123;-76
2021/03/02 00:33:00;;;;;;;23.10;10.02;;;;;;;7.23;70.80;102322.19;4483580;26;20633;-74
2021/03/02 00:35:26;;;;;;;22.90;10.70;;;;;;;7.25;71.19;102313.41;4407523;32;20126;-76
2021/03/02 00:37:52;;;;;;;22.13;10.13;;;;;;;7.32;71.02;102314.31;4391239;32;20046;-76
2021/03/02 00:40:18;;;;;;;22.62;9.75;;;;;;;7.40;70.62;102315.22;4405312;32;20101;-76
2021/03/02 00:42:44;;;;;;;20.65;9.00;;;;;;;7.46;70.15;102308.09;4403717;32;20034;-76
2021/03/02 00:45:11;;;;;;;18.30;8.90;;;;;;;7.54;69.75;102321.00;4403385;32;20046;-76
2021/03/02 00:47:37;;;;;;;18.77;8.75;;;;;;;7.54;69.04;102321.00;4397788;32;20482;-76
2021/03/02 00:50:04;;;;;;;20.42;9.32;;;;;;;7.50;69.18;102320.16;4403368;32;20042;-76
2021/03/02 00:52:30;;;;;;;17.77;8.77;;;;;;;7.54;69.17;102316.22;4394791;32;20041;-76
2021/03/02 00:54:56;;;;;;;21.02;9.75;;;;;;;7.54;69.27;102321.00;4399291;32;20407;-76
2021/03/02 00:57:21;;;;;;;21.25;9.32;;;;;;;7.61;69.25;102321.91;4391849;32;20095;-76
2021/03/02 00:59:47;;;;;;;20.25;9.77;;;;;;;7.65;68.97;102319.16;4392127;32;20089;-76
2021/03/02 01:02:12;;;;;;;25.30;10.45;;;;;;;7.55;68.82;102328.25;4395247;32;20038;-76
2021/03/02 01:04:39;;;;;;;24.55;10.73;;;;;;;7.53;69.81;102325.00;4398351;32;20050;-76
2021/03/02 01:07:05;;;;;;;28.55;10.93;;;;;;;7.47;70.06;102332.13;4395769;32;20090;-76
2021/03/02 01:09:32;;;;;;;24.45;11.48;;;;;;;7.44;70.71;102324.47;4374044;32;20076;-76
2021/03/02 01:11:58;;;;;;;24.85;10.20;;;;;;;7.35;71.22;102319.16;4399168;32;20100;-76
2021/03/02 01:14:25;;;;;;;29.75;11.50;;;;;;;7.35;71.48;102318.34;4390234;32;20035;-76
2021/03/02 01:16:50;;;;;;;21.85;10.60;;;;;;;7.41;70.90;102316.81;4401844;32;20037;-76
2021/03/02 01:19:16;;;;;;;22.17;10.30;;;;;;;7.38;71.17;102321.19;4402353;32;20042;-76
2021/03/02 01:21:42;;;;;;;25.08;10.18;;;;;;;7.47;70.87;102321.72;4396685;32;20065;-76
2021/03/02 01:24:10;;;;;;;23.87;10.60;;;;;;;7.47;69.82;102318.94;4391820;32;20073;-76
2021/03/02 01:26:36;;;;;;;29.90;12.55;;;;;;;7.44;69.97;102321.66;4397672;32;20038;-76
2021/03/02 01:29:03;;;;;;;29.98;12.40;;;;;;;7.27;71.10;102317.44;4389543;32;20078;-75
2021/03/02 01:31:28;;;;;;;25.50;10.98;;;;;;;7.30;71.80;102319.47;4401149;32;20091;-76
2021/03/02 01:33:54;;;;;;;24.83;10.30;;;;;;;7.18;72.00;102319.69;4402671;32;20116;-76
2021/03/02 01:36:20;;;;;;;26.42;11.00;;;;;;;7.35;71.57;102324.75;4389031;32;20046;-76
2021/03/02 01:38:45;;;;;;;21.42;9.70;;;;;;;7.30;71.96;102321.47;4400216;32;20031;-77
2021/03/02 01:41:12;;;;;;;22.70;10.00;;;;;;;7.24;71.34;102312.59;4388673;32;20160;-76
2021/03/02 01:43:38;;;;;;;22.83;9.70;;;;;;;7.20;71.51;102306.12;4401852;32;20073;-76
2021/03/02 01:46:05;;;;;;;23.40;9.43;;;;;;;7.30;71.62;102301.88;4402045;32;20404;-76
2021/03/02 01:48:34;;;;;;;27.05;10.88;;;;;;;7.37;71.54;102311.16;4399327;32;20371;-76
2021/03/02 01:51:01;;;;;;;25.75;11.50;;;;;;;7.42;71.29;102304.44;4391119;32;20030;-77
2021/03/02 01:53:27;;;;;;;29.60;10.88;;;;;;;7.45;71.06;102306.47;4398164;32;20081;-76
2021/03/02 01:55:53;;;;;;;25.65;9.45;;;;;;;7.40;70.75;102304.81;4397001;32;20026;-76
2021/03/02 01:58:18;;;;;;;22.08;9.68;;;;;;;7.40;71.10;102304.00;4394334;32;20039;-76
2021/03/02 02:00:45;;;;;;;20.65;8.88;;;;;;;7.40;70.81;102295.63;4403364;32;20450;-75
2021/03/02 02:06:01;;;;;;;21.90;9.97;;;;;;;7.51;70.44;102294.56;4022843;31;15017370;-75
2021/03/02 02:08:42;;;;;;;24.20;9.63;;;;;;;7.38;70.62;102292.38;4463596;32;20376;-75
2021/03/02 02:11:19;;;;;;;21.27;9.63;;;;;;;7.33;71.92;102295.53;4465178;32;20101;-75
2021/03/02 02:13:50;;;;;;;19.80;8.13;;;;;;;7.34;72.20;102291.53;4471222;32;20132;-75
2021/03/02 02:16:23;;;;;;;23.80;10.63;;;;;;;7.38;72.24;102292.38;4464061;32;20045;-76
2021/03/02 02:18:49;;;;;;;23.73;9.93;;;;;;;7.39;71.83;102291.19;4476748;32;20527;-75
2021/03/02 02:21:24;;;;;;;25.30;10.80;;;;;;;7.33;71.24;102285.09;4478502;32;20119;-75
2021/03/02 02:26:51;;;;;;;23.77;10.10;;;;;;;7.27;72.20;102285.84;4014166;31;15018767;-75
2021/03/02 02:29:21;;;;;;;24.45;10.20;;;;;;;7.19;72.43;102290.53;4462543;32;20059;-75
2021/03/02 02:31:50;;;;;;;22.45;10.18;;;;;;;7.23;72.19;102280.19;4463346;32;20403;-75
2021/03/02 02:34:17;;;;;;;26.27;10.15;;;;;;;7.18;72.05;102282.50;4463703;32;20108;-75
2021/03/02 02:36:48;;;;;;;21.52;10.18;;;;;;;7.14;71.18;102281.63;4458543;32;20391;-75
2021/03/02 02:39:16;;;;;;;29.05;10.32;;;;;;;7.23;71.31;102287.75;4460879;32;20063;-75
2021/03/02 02:41:45;;;;;;;23.77;10.00;;;;;;;7.17;71.42;102283.66;4461397;32;20064;-75
2021/03/02 02:44:12;;;;;;;24.70;10.15;;;;;;;7.12;71.94;102284.00;4462837;32;20033;-75
2021/03/02 02:46:38;;;;;;;27.83;10.88;;;;;;;7.15;72.06;102277.66;4463327;32;20088;-75
2021/03/02 02:49:04;;;;;;;22.13;9.88;;;;;;;7.08;72.02;102263.53;4457983;32;20032;-75
2021/03/02 02:51:31;;;;;;;23.65;9.55;;;;;;;7.15;71.60;102281.25;4448630;32;20033;-76
2021/03/02 02:53:58;;;;;;;24.95;10.35;;;;;;;7.00;71.65;102273.03;4454672;32;20042;-75
2021/03/02 02:56:24;;;;;;;23.50;10.02;;;;;;;7.04;72.06;102266.31;4463253;32;20100;-75
2021/03/02 03:01:54;;;;;;;21.12;9.35;;;;;;;7.53;71.21;102271.78;4013051;31;15017794;-75
2021/03/02 03:04:24;;;;;;;21.12;8.52;;;;;;;7.53;71.21;102271.78;4473828;32;20024;-75
2021/03/02 03:06:52;;;;;;;20.33;8.63;;;;;;;7.23;72.04;102266.19;4477974;32;20062;-75
2021/03/02 03:09:21;;;;;;;20.95;9.02;;;;;;;7.20;71.88;102243.72;4465796;32;20045;-75
2021/03/02 03:11:51;;;;;;;22.35;9.57;;;;;;;7.32;71.85;102257.47;4468357;32;20025;-75
2021/03/02 03:14:19;;;;;;;21.33;8.93;;;;;;;7.40;71.63;102248.00;4477929;32;20052;-76
2021/03/02 03:16:45;;;;;;;23.55;10.20;;;;;;;7.40;71.39;102248.78;4451156;32;20041;-76
2021/03/02 03:19:18;;;;;;;22.35;9.70;;;;;;;7.32;71.49;102244.31;4477723;32;20055;-76
2021/03/02 03:21:45;;;;;;;23.45;9.90;;;;;;;7.43;71.35;102247.25;4478875;32;20044;-75
2021/03/02 03:24:11;;;;;;;19.25;7.95;;;;;;;7.44;70.87;102254.44;4478082;32;20091;-74
2021/03/02 03:26:39;;;;;;;17.65;7.75;;;;;;;7.35;69.91;102242.72;4461805;32;20040;-75
2021/03/02 03:29:05;;;;;;;18.35;7.75;;;;;;;7.48;69.90;102235.69;4478157;32;20021;-75
2021/03/02 03:31:31;;;;;;;19.30;8.13;;;;;;;7.44;69.92;102237.63;4469058;32;20095;-76
2021/03/02 03:33:58;;;;;;;24.12;9.55;;;;;;;7.36;69.88;102231.13;4476388;32;20044;-75
2021/03/02 03:36:26;;;;;;;22.08;9.73;;;;;;;7.37;70.65;102226.34;4462413;32;20033;-76
2021/03/02 03:38:52;;;;;;;23.83;9.35;;;;;;;7.36;70.74;102227.53;4461046;32;20061;-75
2021/03/02 03:41:18;;;;;;;20.70;8.93;;;;;;;7.38;70.50;102228.78;4457889;32;20097;-76
2021/03/02 03:43:43;;;;;;;22.95;8.90;;;;;;;7.44;70.71;102227.25;4459869;32;20041;-76
2021/03/02 03:46:09;;;;;;;24.98;9.52;;;;;;;7.49;70.96;102223.31;4465046;32;20158;-75
2021/03/02 03:48:35;;;;;;;24.00;10.05;;;;;;;7.54;70.70;102225.75;4452083;32;20052;-75
2021/03/02 03:51:01;;;;;;;23.25;9.90;;;;;;;7.51;70.91;102227.34;4450623;32;20128;-75
2021/03/02 03:53:32;;;;;;;22.67;9.40;;;;;;;7.54;71.29;102225.75;4466900;32;20063;-75
2021/03/02 03:56:00;;;;;;;23.23;9.57;;;;;;;7.35;71.07;102228.72;4448099;32;20026;-75
2021/03/02 03:58:29;;;;;;;25.65;9.77;;;;;;;7.27;72.51;102215.84;4446255;32;20074;-75
2021/03/02 04:00:56;;;;;;;21.45;9.15;;;;;;;7.21;72.03;102222.94;4449766;32;20041;-74
2021/03/02 04:03:25;;;;;;;21.65;9.05;;;;;;;7.15;72.80;102227.28;4453563;32;20098;-75
2021/03/02 04:05:51;;;;;;;18.80;7.68;;;;;;;7.20;72.43;102224.13;4458689;32;20075;-75
2021/03/02 04:08:17;;;;;;;18.12;7.32;;;;;;;7.21;71.73;102214.56;4446218;32;20116;-75
2021/03/02 04:10:44;;;;;;;17.90;7.50;;;;;;;7.19;71.42;102219.72;4463645;32;20028;-75
2021/03/02 04:13:12;;;;;;;17.90;7.22;;;;;;;7.23;71.76;102212.97;4455543;32;20053;-75
2021/03/02 04:15:38;;;;;;;17.25;7.05;;;;;;;7.09;70.71;102212.78;4436071;32;20026;-75
2021/03/02 04:18:10;;;;;;;16.48;6.93;;;;;;;7.09;71.45;102226.78;4439596;32;20094;-74
2021/03/02 04:20:36;;;;;;;14.13;6.20;;;;;;;7.02;71.59;102221.09;4437066;32;20051;-74
2021/03/02 04:23:01;;;;;;;18.73;7.32;;;;;;;6.93;71.81;102220.56;4460599;32;20051;-75
2021/03/02 04:25:27;;;;;;;17.17;6.80;;;;;;;6.87;71.55;102224.84;4452534;32;20029;-75
2021/03/02 04:27:53;;;;;;;13.35;6.03;;;;;;;6.89;71.73;102221.69;4448824;32;20029;-74
2021/03/02 04:30:19;;;;;;;24.12;9.15;;;;;;;6.78;71.75;102218.72;4444110;32;20085;-75
2021/03/02 04:32:45;;;;;;;29.25;10.88;;;;;;;6.70;71.88;102217.03;4449700;32;20424;-75
2021/03/02 04:35:11;;;;;;;25.83;10.32;;;;;;;6.62;72.21;102222.87;4445630;32;20479;-74
2021/03/02 04:37:37;;;;;;;23.35;9.02;;;;;;;6.56;72.69;102218.81;4438961;32;20041;-75
2021/03/02 04:40:05;;;;;;;21.62;8.98;;;;;;;6.47;72.70;102216.25;4442461;32;20056;-74
2021/03/02 04:42:31;;;;;;;16.77;7.18;;;;;;;6.47;73.11;102219.03;4449281;32;20063;-75
2021/03/02 04:44:57;;;;;;;18.02;8.10;;;;;;;6.53;72.73;102217.53;4457406;32;20041;-75
2021/03/02 04:47:23;;;;;;;16.75;7.50;;;;;;;6.62;72.45;102229.28;4445994;32;20101;-74
2021/03/02 04:49:48;;;;;;;20.75;8.25;;;;;;;6.60;71.35;102223.22;4436245;32;20038;-75
2021/03/02 04:52:16;;;;;;;17.87;8.48;;;;;;;6.58;71.16;102222.81;4442730;32;20024;-75
2021/03/02 04:54:42;;;;;;;17.98;8.10;;;;;;;6.48;71.26;102212.28;4453117;32;20025;-74
2021/03/02 04:57:07;;;;;;;19.48;7.85;;;;;;;6.56;71.58;102214.00;4450784;32;20413;-74
2021/03/02 04:59:33;;;;;;;20.20;8.90;;;;;;;6.53;71.70;102220.34;4450092;32;20052;-75
2021/03/02 05:01:58;;;;;;;19.20;8.63;;;;;;;6.53;71.34;102222.34;4449108;32;20464;-75
2021/03/02 05:04:24;;;;;;;23.60;8.93;;;;;;;6.56;71.31;102221.59;4444611;32;20104;-75
2021/03/02 05:06:50;;;;;;;19.58;8.95;;;;;;;6.58;71.75;102213.63;4435046;32;20058;-75
2021/03/02 05:09:15;;;;;;;24.60;9.40;;;;;;;6.64;71.56;102203.72;4443991;32;20038;-75
2021/03/02 05:11:41;;;;;;;24.27;10.68;;;;;;;6.67;71.53;102208.56;4441006;32;20056;-75
2021/03/02 05:14:07;;;;;;;27.42;10.60;;;;;;;6.66;71.94;102202.16;4435552;32;20030;-75
2021/03/02 05:16:32;;;;;;;33.78;13.45;;;;;;;6.75;72.35;102216.69;4439759;32;20089;-75
2021/03/02 05:18:58;;;;;;;25.55;9.93;;;;;;;6.72;71.81;102216.66;4449555;32;20030;-75
2021/03/02 05:21:23;;;;;;;21.87;8.45;;;;;;;6.69;71.89;102209.00;4460025;32;20063;-75
2021/03/02 05:23:49;;;;;;;25.58;10.63;;;;;;;6.76;72.16;102209.09;4466781;32;20021;-74
2021/03/02 05:26:15;;;;;;;24.27;9.35;;;;;;;6.84;72.34;102208.03;4466297;32;20021;-75
2021/03/02 05:28:40;;;;;;;15.07;6.10;;;;;;;6.87;71.89;102208.06;4450086;32;20044;-75
2021/03/02 05:31:06;;;;;;;14.00;6.10;;;;;;;6.74;71.91;102208.66;4446992;32;20100;-75
2021/03/02 05:33:32;;;;;;;14.95;6.22;;;;;;;6.65;71.98;102214.53;4449518;32;20099;-75
2021/03/02 05:35:57;;;;;;;12.40;5.32;;;;;;;6.63;71.88;102214.09;4449059;32;20134;-75
2021/03/02 05:38:23;;;;;;;15.27;6.70;;;;;;;6.57;71.80;102217.59;4427377;32;20086;-75
2021/03/02 05:40:49;;;;;;;12.90;5.78;;;;;;;6.52;72.36;102209.53;4448948;32;20037;-75
2021/03/02 05:43:15;;;;;;;10.52;4.95;;;;;;;6.42;72.31;102215.75;4450032;32;20048;-75
2021/03/02 05:45:44;;;;;;;11.00;4.55;;;;;;;6.39;72.40;102217.31;4448812;32;20042;-75
2021/03/02 05:48:10;;;;;;;11.15;5.07;;;;;;;6.43;71.65;102220.97;4460452;32;20060;-75
2021/03/02 05:50:37;;;;;;;12.93;6.07;;;;;;;6.33;72.05;102213.22;4465906;32;20087;-75
2021/03/02 05:53:03;;;;;;;10.27;4.37;;;;;;;6.09;72.04;102211.62;4457829;32;20098;-75
2021/03/02 05:55:32;;;;;;;10.30;4.55;;;;;;;6.09;72.55;102214.44;4449509;32;20401;-75
2021/03/02 05:57:59;;;;;;;11.07;4.53;;;;;;;6.11;72.74;102220.44;4442716;32;20037;-75
2021/03/02 06:00:25;;;;;;;15.07;6.62;;;;;;;6.17;73.07;102222.94;4448401;32;20029;-75
2021/03/02 06:02:51;;;;;;;15.77;6.93;;;;;;;6.37;72.86;102221.66;4449723;32;20088;-75
2021/03/02 06:05:17;;;;;;;14.32;6.70;;;;;;;6.36;72.99;102225.66;4441987;32;20080;-75
2021/03/02 06:07:42;;;;;;;10.88;4.90;;;;;;;6.34;73.18;102231.62;4436832;32;20072;-75
2021/03/02 06:10:10;;;;;;;9.70;4.85;;;;;;;6.37;73.42;102230.88;4436740;32;20106;-75
2021/03/02 06:12:57;;;;;;;8.65;3.97;;;;;;;6.34;73.25;102226.03;4456545;32;20060;-76
2021/03/02 06:15:24;;;;;;;10.00;4.25;;;;;;;6.54;72.82;102233.16;4446265;32;20107;-75
2021/03/02 06:20:47;;;;;;;10.82;4.62;;;;;;;6.61;72.26;102226.84;3991064;32;15075522;-75
2021/03/02 06:23:29;;;;;;;11.85;4.72;;;;;;;6.55;72.34;102229.16;4447281;32;20037;-75
2021/03/02 06:25:57;;;;;;;12.32;4.78;;;;;;;6.66;72.21;102223.75;4447510;32;20029;-76
2021/03/02 06:28:44;;;;;;;21.35;7.47;;;;;;;6.70;71.88;102224.59;4436988;32;20068;-75
2021/03/02 06:31:35;;;;;;;27.25;8.30;;;;;;;6.70;71.44;102230.19;4434402;32;20209;-75
2021/03/02 06:34:05;;;;;;;24.08;7.12;;;;;;;6.66;70.79;102235.72;4431434;32;20132;-75
2021/03/02 06:36:31;;;;;;;12.05;5.25;;;;;;;6.64;70.94;102240.09;4432931;32;20034;-76
2021/03/02 06:38:56;;;;;;;7.95;3.65;;;;;;;6.47;70.80;102238.62;4438022;32;20057;-75
2021/03/02 06:41:22;;;;;;;8.15;3.85;;;;;;;6.12;71.81;102238.84;4447572;32;20511;-76
2021/03/02 06:43:48;;;;;;;8.63;3.72;;;;;;;5.93;72.04;102236.06;4447274;32;20093;-75
2021/03/02 06:46:13;;;;;;;12.93;4.15;;;;;;;5.84;71.99;102241.09;4446319;32;20037;-75
2021/03/02 06:48:56;;;;;;;13.93;5.03;;;;;;;5.84;72.13;102243.09;4446108;32;20169;-76
2021/03/02 06:51:25;;;;;;;19.50;7.03;;;;;;;5.76;72.17;102233.72;4446447;32;20033;-75
2021/03/02 06:56:44;;;;;;;24.10;7.82;;;;;;;6.13;72.04;102248.81;3991680;32;15023202;-77
2021/03/02 07:01:48;;;;;;;25.23;8.85;;;;;;;6.27;71.82;102244.66;3991977;32;15022899;-76
2021/03/02 07:04:16;;;;;;;20.08;8.25;;;;;;;6.27;71.82;102244.66;4447381;32;20017;-75
2021/03/02 07:06:43;;;;;;;20.02;6.68;;;;;;;5.86;72.49;102243.53;4448951;32;20075;-75
2021/03/02 07:09:10;;;;;;;21.52;7.95;;;;;;;5.76;72.78;102247.69;4446076;32;20025;-75
2021/03/02 07:11:38;;;;;;;25.83;8.82;;;;;;;5.98;72.29;102258.13;4432771;32;20331;-75
2021/03/02 07:14:05;;;;;;;32.50;10.57;;;;;;;5.95;71.45;102249.66;4435037;32;20098;-75
2021/03/02 07:16:34;;;;;;;29.65;9.38;;;;;;;6.07;71.18;102257.88;4445027;32;20099;-75
2021/03/02 07:19:02;;;;;;;33.67;10.52;;;;;;;6.11;70.65;102255.97;4446540;32;20068;-76
2021/03/02 07:21:35;;;;;;;30.55;10.70;;;;;;;6.00;70.72;102261.38;4442606;32;20030;-76
2021/03/02 07:24:03;;;;;;;25.00;8.13;;;;;;;5.82;70.70;102268.59;4444687;32;20029;-76
2021/03/02 07:26:31;;;;;;;26.73;8.68;;;;;;;5.80;70.68;102275.72;4447303;32;20085;-76
2021/03/02 07:28:57;;;;;;;19.52;7.53;;;;;;;5.87;69.96;102268.28;4446780;32;20100;-76
2021/03/02 07:31:23;;;;;;;23.65;6.87;;;;;;;5.90;70.19;102270.34;4441635;32;20374;-76
2021/03/02 07:33:50;;;;;;;27.25;7.55;;;;;;;5.98;70.03;102277.69;4445724;32;20458;-77
2021/03/02 07:36:16;;;;;;;27.70;9.80;;;;;;;6.05;69.56;102271.44;4433994;32;20025;-76
2021/03/02 07:38:42;;;;;;;28.38;10.32;;;;;;;6.02;69.54;102280.56;4441004;32;20091;-76
2021/03/02 07:41:07;;;;;;;24.95;9.48;;;;;;;6.10;69.80;102274.72;4443284;32;20045;-76
2021/03/02 07:43:37;;;;;;;32.90;10.93;;;;;;;6.17;69.41;102274.06;4463722;32;20089;-76
2021/03/02 07:54:36;;;;;;;11.27;4.07;;;;;;;6.83;67.22;102281.94;3997470;32;15023391;-76
2021/03/02 08:03:25;;;;;;;12.30;4.15;;;;;;;6.66;66.66;102283.28;3978839;32;15015535;-76
2021/03/02 08:05:53;;;;;;;8.65;3.62;;;;;;;6.52;67.36;102285.03;4426502;32;20038;-76
2021/03/02 08:11:23;;;;;;;14.57;5.00;;;;;;;6.96;66.76;102294.56;3997628;32;15023034;-77
2021/03/02 08:13:49;;;;;;;13.68;5.62;;;;;;;6.96;66.76;102294.56;4444501;32;20408;-77
2021/03/02 08:16:15;;;;;;;11.10;4.95;;;;;;;6.55;66.19;102292.69;4458231;32;20034;-76
2021/03/02 08:18:42;;;;;;;11.27;4.75;;;;;;;6.60;67.38;102292.38;4450173;32;20033;-77
2021/03/02 08:23:59;;;;;;;17.55;6.78;;;;;;;7.00;66.39;102287.03;3986261;31;15704006;-75
2021/03/02 08:31:46;;;;;;;13.70;5.28;;;;;;;7.27;65.84;102305.44;3983845;32;15024732;-76
2021/03/02 08:34:13;;;;;;;13.82;6.05;;;;;;;7.27;65.84;102305.44;4427091;32;20047;-77
2021/03/02 08:36:40;;;;;;;13.95;5.65;;;;;;;6.95;67.17;102290.13;4423955;32;20037;-77
2021/03/02 08:39:12;;;;;;;15.65;5.80;;;;;;;6.92;66.78;102283.31;4418673;32;20128;-76
2021/03/02 08:41:40;;;;;;;16.83;5.78;;;;;;;7.05;67.29;102292.28;4425979;32;20081;-77
2021/03/02 08:44:07;;;;;;;12.45;5.12;;;;;;;7.06;67.32;102288.31;4426818;32;20068;-76
2021/03/02 08:46:36;;;;;;;12.52;5.47;;;;;;;7.00;67.55;102296.22;4421449;32;20065;-77
2021/03/02 08:49:10;;;;;;;15.63;6.18;;;;;;;6.87;67.37;102291.22;4416533;32;20037;-76
2021/03/02 08:51:37;;;;;;;16.35;6.90;;;;;;;6.89;67.74;102294.44;4418941;32;20429;-77
2021/03/02 08:54:04;;;;;;;15.50;6.25;;;;;;;6.77;66.71;102298.25;4423151;32;20046;-78
2021/03/02 08:56:31;;;;;;;13.40;6.47;;;;;;;6.99;67.78;102291.00;4413309;32;20096;-75
2021/03/02 09:01:55;;;;;;;17.42;6.62;;;;;;;6.93;67.34;102278.53;3990503;31;15081886;-77
2021/03/02 09:04:23;;;;;;;14.70;6.37;;;;;;;7.09;68.03;102281.97;4449777;32;20139;-76
2021/03/02 09:06:50;;;;;;;13.75;6.28;;;;;;;7.01;67.96;102285.84;4440198;32;20021;-76
2021/03/02 09:11:53;;;;;;;23.65;9.32;;;;;;;7.53;67.96;102299.78;3989302;32;15023407;-78
2021/03/02 09:14:34;;;;;;;15.50;7.70;;;;;;;7.53;67.96;102299.78;4444867;32;20890;-78
2021/03/02 09:17:02;;;;;;;15.20;6.45;;;;;;;7.12;68.36;102298.00;4427636;32;20056;-76
2021/03/02 09:19:30;;;;;;;18.75;7.50;;;;;;;7.22;67.88;102300.16;4442182;32;20107;-76
2021/03/02 09:24:36;;;;;;;18.20;7.97;;;;;;;7.52;67.08;102292.56;3988305;32;15025639;-76
2021/03/02 09:27:05;;;;;;;17.87;7.20;;;;;;;7.51;67.11;102300.16;4441698;32;20041;-76
2021/03/02 09:29:34;;;;;;;18.90;7.57;;;;;;;7.56;67.22;102307.44;4439400;32;20038;-76
2021/03/02 09:32:03;;;;;;;16.90;7.07;;;;;;;7.67;66.40;102308.37;4438580;32;20071;-77
2021/03/02 09:34:32;;;;;;;16.08;6.97;;;;;;;7.61;65.41;102304.31;4445096;32;20068;-76
2021/03/02 09:37:06;;;;;;;19.02;8.32;;;;;;;7.61;65.15;102304.31;4431300;32;20029;-77
2021/03/02 09:39:33;;;;;;;21.92;8.48;;;;;;;7.67;65.39;102311.97;4429922;32;20098;-77
2021/03/02 09:42:00;;;;;;;18.25;8.10;;;;;;;7.62;65.42;102322.72;4427258;32;20037;-76
2021/03/02 09:47:06;;;;;;;26.33;9.17;;;;;;;7.75;64.56;102327.72;4011666;31;15017576;-76
2021/03/02 09:49:42;;;;;;;25.30;9.70;;;;;;;7.75;64.56;102327.72;4461752;32;20179;-77
2021/03/02 09:58:16;;;;;;;27.33;10.80;;;;;;;7.73;66.34;102326.44;4002670;32;15020161;-77
2021/03/02 10:03:37;;;;;;;25.95;10.48;;;;;;;7.69;66.49;102320.00;3990115;32;15028241;-77
2021/03/02 10:06:04;;;;;;;29.10;12.00;;;;;;;7.69;66.49;102320.00;4445428;32;20029;-76
2021/03/02 10:19:23;;;;;;;32.85;12.27;;;;;;;7.83;65.97;102314.59;3996396;32;15015789;-75
2021/03/02 10:29:49;;;;;;;33.67;14.35;;;;;;;7.92;65.03;102312.31;4003965;32;15027752;-78
2021/03/02 10:32:15;;;;;;;31.35;13.45;;;;;;;7.92;65.03;102312.31;4450950;32;20043;-76
2021/03/02 10:34:43;;;;;;;34.78;14.73;;;;;;;7.60;66.13;102300.69;4443886;32;20018;-77
2021/03/02 10:37:10;;;;;;;31.17;13.62;;;;;;;7.65;65.08;102299.53;4436422;32;20060;-76
2021/03/02 10:39:37;;;;;;;32.78;14.30;;;;;;;7.63;65.63;102301.91;4428140;32;20108;-77
2021/03/02 10:42:05;;;;;;;33.67;14.63;;;;;;;7.46;66.07;102303.28;4438529;32;20105;-77
2021/03/02 10:44:31;;;;;;;35.42;14.93;;;;;;;7.34;67.28;102292.31;4434710;32;20208;-76
2021/03/02 10:46:57;;;;;;;35.78;15.40;;;;;;;7.51;66.89;102294.56;4446989;32;20041;-76
2021/03/02 10:49:24;;;;;;;39.15;15.48;;;;;;;7.69;66.19;102292.81;4428385;32;20132;-79
2021/03/02 10:51:49;;;;;;;33.55;14.57;;;;;;;7.77;66.45;102293.69;4416593;32;20385;-78
2021/03/02 10:54:15;;;;;;;33.80;13.88;;;;;;;7.85;65.83;102298.19;4403889;32;20078;-78
2021/03/02 10:56:41;;;;;;;33.08;13.65;;;;;;;7.95;65.20;102291.91;4435533;32;20056;-76
2021/03/02 10:59:08;;;;;;;34.53;14.65;;;;;;;8.09;65.36;102294.84;4429781;32;20496;-77
2021/03/02 11:01:34;;;;;;;38.25;16.33;;;;;;;8.20;64.37;102305.00;4441475;32;20049;-76
2021/03/02 11:04:00;;;;;;;37.30;15.18;;;;;;;8.04;64.15;102306.44;4435464;32;20121;-75
2021/03/02 11:06:26;;;;;;;33.08;14.95;;;;;;;8.11;64.65;102298.09;4429500;32;20446;-78
2021/03/02 11:08:53;;;;;;;34.55;14.93;;;;;;;8.18;63.38;102307.38;4436335;32;20052;-76
2021/03/02 11:11:20;;;;;;;33.75;15.07;;;;;;;8.16;63.36;102317.34;4433868;32;20072;-76
2021/03/02 11:13:47;;;;;;;36.80;15.52;;;;;;;8.21;63.71;102311.41;4439904;32;20045;-75
2021/03/02 11:16:13;;;;;;;35.10;15.48;;;;;;;8.23;63.75;102314.69;4433938;32;20046;-75
2021/03/02 11:18:40;;;;;;;38.08;16.45;;;;;;;8.27;63.54;102315.53;4429766;32;20059;-76
2021/03/02 11:21:06;;;;;;;35.20;16.17;;;;;;;8.31;63.82;102305.13;4431548;32;20045;-78
2021/03/02 11:23:32;;;;;;;43.92;18.12;;;;;;;8.36;63.56;102307.59;4416985;32;20141;-75
2021/03/02 11:25:58;;;;;;;41.13;18.27;;;;;;;8.40;63.38;102308.44;4428525;32;20080;-75
2021/03/02 11:28:24;;;;;;;38.85;17.35;;;;;;;8.46;63.35;102314.47;4429470;32;20795;-80
2021/03/02 11:30:49;;;;;;;36.92;15.80;;;;;;;8.41;62.02;102304.44;4432310;32;20141;-76
2021/03/02 11:33:15;;;;;;;33.50;14.87;;;;;;;8.55;62.21;102310.19;4433135;32;20041;-78
2021/03/02 11:35:43;;;;;;;35.30;15.88;;;;;;;8.66;62.12;102299.88;4427854;32;20366;-79
2021/03/02 11:38:10;;;;;;;37.20;16.35;;;;;;;8.80;61.80;102308.37;4431028;32;20038;-77
2021/03/02 11:40:36;;;;;;;39.35;16.50;;;;;;;8.82;61.49;102297.59;4425528;32;20037;-79
2021/03/02 11:43:03;;;;;;;45.25;15.77;;;;;;;8.95;61.04;102286.84;4436499;32;20030;-77
2021/03/02 11:45:31;;;;;;;48.33;18.25;;;;;;;9.05;60.72;102286.91;4425838;32;20422;-77
2021/03/02 11:47:58;;;;;;;44.38;17.62;;;;;;;9.16;60.26;102299.03;4420329;32;20399;-78
2021/03/02 11:50:24;;;;;;;44.65;17.20;;;;;;;9.30;60.62;102301.13;4434946;32;20022;-77
2021/03/02 11:52:50;;;;;;;45.97;17.23;;;;;;;9.32;60.17;102293.09;4420574;32;20070;-76
2021/03/02 11:55:18;;;;;;;42.50;17.55;;;;;;;9.34;59.49;102290.72;4422754;32;20060;-76
2021/03/02 11:57:44;;;;;;;45.55;17.23;;;;;;;9.22;59.73;102279.81;4419707;32;20042;-76
2021/03/02 12:00:13;;;;;;;47.08;18.10;;;;;;;9.29;59.67;102282.66;4432796;32;20457;-76
2021/03/02 12:02:40;;;;;;;46.22;18.02;;;;;;;9.30;59.03;102281.47;4435297;32;20056;-78
2021/03/02 12:05:06;;;;;;;52.90;17.55;;;;;;;9.36;59.45;102282.72;4434674;32;20029;-77
2021/03/02 12:07:35;;;;;;;52.33;18.42;;;;;;;9.34;59.35;102285.09;4431956;32;20041;-78
2021/03/02 12:10:02;;;;;;;54.95;17.50;;;;;;;9.53;59.17;102282.78;4430133;32;20460;-75
2021/03/02 12:12:27;;;;;;;41.95;17.62;;;;;;;9.68;58.88;102278.03;4434226;32;20048;-76
2021/03/02 12:14:53;;;;;;;53.67;19.65;;;;;;;9.72;58.65;102278.84;4426316;32;20022;-78
2021/03/02 12:17:19;;;;;;;62.10;22.05;;;;;;;9.81;58.45;102268.03;4431225;32;20097;-76
2021/03/02 12:19:44;;;;;;;43.30;17.73;;;;;;;9.71;58.65;102269.63;4419740;32;20422;-75
2021/03/02 12:22:10;;;;;;;59.92;19.23;;;;;;;9.83;57.82;102258.03;4418616;32;20170;-76
2021/03/02 12:24:35;;;;;;;61.28;18.67;;;;;;;9.86;58.32;102250.78;4426554;32;20162;-77
2021/03/02 12:27:02;;;;;;;57.22;19.52;;;;;;;9.94;58.01;102255.22;4421734;32;20042;-78
2021/03/02 12:29:28;;;;;;;43.97;18.08;;;;;;;10.03;57.99;102258.44;4434492;32;20076;-76
2021/03/02 12:31:54;;;;;;;50.70;18.83;;;;;;;9.89;58.44;102269.69;4423607;32;20083;-76
2021/03/02 12:34:20;;;;;;;48.15;18.33;;;;;;;10.00;57.54;102248.81;4428382;32;20556;-75
2021/03/02 12:36:46;;;;;;;50.22;18.67;;;;;;;10.08;58.08;102250.47;4420105;32;20023;-76
2021/03/02 12:39:12;;;;;;;45.58;19.30;;;;;;;10.19;57.77;102247.69;4421713;32;20074;-78
2021/03/02 12:41:38;;;;;;;50.58;19.58;;;;;;;10.31;56.40;102252.12;4424235;32;20335;-74